Time;durP1;ratioP1;P1;durP2;ratioP2;P2;SDS_P1;SDS_P2;PMS_P1;PMS_P2;Temp;Humidity;BMP_temperature;BMP_pressure;BME280_temperature;BME280_humidity;BME280_pressure;Samples;Min_cycle;Max_cycle;Signal;HPM_P1;HPM_P2
2022/06/09 00:01:44;;;;;;;17.00;14.68;;;;;;;15.64;73.86;100664.28;1752415;80;21772;-88
2022/06/09 00:04:19;;;;;;;17.45;14.33;;;;;;;15.65;74.00;100666.48;1715970;82;21029;-87
2022/06/09 00:06:51;;;;;;;19.12;14.38;;;;;;;15.66;74.07;100672.25;1709889;82;21113;-87
2022/06/09 00:09:19;;;;;;;17.48;15.65;;;;;;;15.65;74.03;100668.69;1719018;83;21278;-88
2022/06/09 00:11:49;;;;;;;16.48;14.73;;;;;;;15.62;73.95;100669.14;1741503;81;21492;-87
2022/06/09 00:14:15;;;;;;;22.22;15.38;;;;;;;15.60;74.00;100674.86;1749126;79;21769;-88
2022/06/09 00:16:43;;;;;;;20.95;16.17;;;;;;;15.58;74.07;100667.34;1774534;80;21105;-88
2022/06/09 00:19:16;;;;;;;16.60;14.58;;;;;;;15.56;74.17;100667.36;1780782;80;21053;-89
2022/06/09 00:21:45;;;;;;;18.62;15.40;;;;;;;15.51;74.15;100666.45;1739039;81;21116;-88
2022/06/09 00:24:17;;;;;;;18.90;15.15;;;;;;;15.48;74.18;100667.75;1742885;81;21021;-86
2022/06/09 00:26:45;;;;;;;20.90;15.55;;;;;;;15.47;74.31;100668.66;1751760;80;21776;-89
2022/06/09 00:29:12;;;;;;;20.70;15.05;;;;;;;15.45;74.28;100672.62;1751420;80;21020;-88
2022/06/09 00:31:39;;;;;;;16.48;14.50;;;;;;;15.43;74.27;100670.82;1735252;80;21053;-87
2022/06/09 00:34:06;;;;;;;16.62;14.83;;;;;;;15.39;74.30;100668.63;1753622;80;21599;-87
2022/06/09 00:36:33;;;;;;;17.35;15.25;;;;;;;15.37;74.30;100665.05;1751460;80;21049;-89
2022/06/09 00:38:59;;;;;;;16.50;14.30;;;;;;;15.34;74.27;100663.73;1776657;79;22561;-87
2022/06/09 00:41:26;;;;;;;19.57;15.03;;;;;;;15.31;74.19;100669.89;1750477;80;21126;-87
2022/06/09 00:44:13;;;;;;;16.27;14.50;;;;;;;15.26;74.16;100664.13;1747642;80;21042;-89
2022/06/09 00:46:40;;;;;;;16.17;14.33;;;;;;;15.23;74.21;100670.31;1723533;80;21029;-86
2022/06/09 00:49:12;;;;;;;17.87;14.03;;;;;;;15.21;74.40;100665.89;1760757;80;21081;-89
2022/06/09 00:51:42;;;;;;;15.72;14.10;;;;;;;15.16;74.42;100661.45;1750711;80;21839;-90
2022/06/09 00:54:20;;;;;;;19.02;15.15;;;;;;;15.15;74.51;100666.75;1710717;82;21842;-89
2022/06/09 00:56:55;;;;;;;16.60;14.60;;;;;;;15.13;74.51;100664.08;1765816;80;21061;-88
2022/06/09 00:59:26;;;;;;;18.05;15.20;;;;;;;15.10;74.49;100669.36;1729635;81;21337;-90
2022/06/09 01:01:55;;;;;;;18.85;15.15;;;;;;;15.07;74.38;100660.09;1762123;80;21046;-87
2022/06/09 01:04:22;;;;;;;16.65;14.93;;;;;;;15.04;74.40;100657.86;1745380;82;21773;-91
2022/06/09 01:06:58;;;;;;;17.05;14.58;;;;;;;15.01;74.45;100659.16;1743341;82;21072;-91
2022/06/09 01:09:26;;;;;;;15.93;14.30;;;;;;;14.99;74.39;100657.81;1726748;82;21246;-88
2022/06/09 01:11:55;;;;;;;20.50;15.30;;;;;;;14.95;74.51;100660.00;1743570;80;21060;-89
2022/06/09 01:14:25;;;;;;;15.88;14.28;;;;;;;14.91;74.50;100657.77;1725144;80;21087;-88
2022/06/09 01:17:09;;;;;;;19.70;14.93;;;;;;;14.87;74.56;100664.39;1741580;80;22603;-88
2022/06/09 01:19:50;;;;;;;16.77;14.47;;;;;;;14.84;74.65;100665.23;1744956;80;21032;-88
2022/06/09 01:22:55;;;;;;;17.50;14.47;;;;;;;14.80;74.67;100667.42;1745697;80;21079;-89
2022/06/09 01:25:47;;;;;;;15.65;14.05;;;;;;;14.78;74.80;100667.86;1737157;80;21540;-89
2022/06/09 01:29:06;;;;;;;16.30;14.70;;;;;;;14.76;74.78;100666.52;1724359;81;21131;-88
2022/06/09 01:31:59;;;;;;;16.30;14.60;;;;;;;14.74;74.85;100660.32;1737868;80;21763;-88
2022/06/09 01:34:40;;;;;;;16.67;14.78;;;;;;;14.71;74.93;100661.61;1758221;80;21027;-88
2022/06/09 01:37:17;;;;;;;17.17;15.45;;;;;;;14.60;74.99;100646.53;1744430;81;21021;-88
2022/06/09 01:39:53;;;;;;;15.98;14.28;;;;;;;14.67;75.19;100656.30;1745485;81;21052;-87
2022/06/09 01:42:33;;;;;;;16.82;14.43;;;;;;;14.66;75.13;100665.11;1733745;81;21045;-88
2022/06/09 01:45:11;;;;;;;16.60;14.85;;;;;;;14.62;75.14;100665.97;1741937;80;21794;-89
2022/06/09 01:48:12;;;;;;;16.90;14.80;;;;;;;14.61;75.25;100666.86;1763080;80;21092;-88
2022/06/09 01:51:03;;;;;;;18.17;13.75;;;;;;;14.59;75.22;100668.17;1728432;82;21099;-91
2022/06/09 01:53:45;;;;;;;19.35;14.78;;;;;;;14.55;75.23;100667.22;1737444;82;21082;-89
2022/06/09 01:56:39;;;;;;;18.77;14.95;;;;;;;14.51;75.33;100675.16;1730054;80;21034;-91
2022/06/09 01:59:12;;;;;;;;;;;;;;;14.53;75.49;100664.13;1736812;82;21786;-87
2022/06/09 02:01:55;;;;;;;17.95;14.10;;;;;;;14.55;75.48;100667.67;1733333;81;20581;-89
2022/06/09 02:04:31;;;;;;;17.57;15.05;;;;;;;14.52;75.34;100664.98;1744660;81;21109;-89
2022/06/09 02:06:58;;;;;;;18.62;15.53;;;;;;;14.49;75.35;100663.63;1746844;80;21050;-88
2022/06/09 02:09:28;;;;;;;16.93;15.20;;;;;;;14.48;75.45;100660.11;1741245;81;21123;-89
2022/06/09 02:11:56;;;;;;;17.60;15.18;;;;;;;14.48;75.47;100658.78;1726780;80;22665;-89
2022/06/09 02:14:26;;;;;;;16.55;14.93;;;;;;;14.49;75.49;100658.33;1733890;81;21115;-88
2022/06/09 02:16:56;;;;;;;20.32;13.48;;;;;;;14.44;75.47;100646.40;1736018;80;21060;-88
2022/06/09 02:19:23;;;;;;;15.65;14.05;;;;;;;14.48;75.59;100653.48;1718027;80;21104;-88
2022/06/09 02:21:49;;;;;;;17.95;14.68;;;;;;;14.50;75.54;100657.02;1759838;80;21056;-88
2022/06/09 02:24:22;;;;;;;18.30;14.63;;;;;;;14.49;75.53;100663.22;1739944;82;21737;-89
2022/06/09 02:26:49;;;;;;;17.33;14.90;;;;;;;14.52;75.61;100654.39;1759486;80;21053;-88
2022/06/09 02:29:16;;;;;;;16.85;14.73;;;;;;;14.51;75.52;100654.84;1750188;80;21089;-87
2022/06/09 02:31:47;;;;;;;18.32;15.65;;;;;;;14.53;75.62;100654.41;1740289;81;21207;-89
2022/06/09 02:34:16;;;;;;;16.75;15.05;;;;;;;14.58;75.76;100658.44;1776396;80;21053;-90
2022/06/09 02:36:45;;;;;;;16.50;14.68;;;;;;;14.63;75.74;100665.11;1756536;80;21810;-89
2022/06/09 02:39:12;;;;;;;15.90;14.03;;;;;;;14.67;75.71;100665.13;1749352;81;21085;-90
2022/06/09 02:41:39;;;;;;;17.17;14.80;;;;;;;14.71;75.66;100666.91;1763490;80;21049;-90
2022/06/09 02:44:05;;;;;;;16.02;14.40;;;;;;;14.74;75.66;100662.97;1766341;80;21080;-90
2022/06/09 02:46:32;;;;;;;15.08;13.68;;;;;;;14.80;75.67;100670.08;1752936;80;21045;-88
2022/06/09 02:49:01;;;;;;;16.23;14.15;;;;;;;14.86;75.62;100663.48;1753230;81;21719;-89
2022/06/09 02:51:32;;;;;;;19.35;14.85;;;;;;;14.93;75.64;100663.97;1730142;80;21033;-88
2022/06/09 02:54:01;;;;;;;15.53;13.72;;;;;;;15.02;75.55;100668.89;1757296;80;21602;-88
2022/06/09 02:56:28;;;;;;;18.02;14.65;;;;;;;15.06;75.39;100666.70;1770567;80;21128;-89
2022/06/09 02:58:56;;;;;;;17.45;15.18;;;;;;;15.09;75.29;100673.32;1778460;80;21293;-89
2022/06/09 03:01:24;;;;;;;15.93;14.25;;;;;;;15.14;75.36;100669.81;1756469;81;21839;-88
2022/06/09 03:03:51;;;;;;;14.58;13.18;;;;;;;15.23;75.28;100668.11;1760435;80;21057;-88
2022/06/09 03:06:18;;;;;;;16.55;13.75;;;;;;;15.26;75.05;100672.98;1783163;80;21013;-88
2022/06/09 03:08:45;;;;;;;23.57;14.53;;;;;;;15.31;75.03;100669.02;1743702;80;21050;-88
2022/06/09 03:11:12;;;;;;;15.18;13.58;;;;;;;15.33;74.97;100664.59;1756895;80;21648;-90
2022/06/09 03:13:40;;;;;;;16.05;14.18;;;;;;;15.36;74.88;100669.48;1760940;80;22620;-89
2022/06/09 03:16:29;;;;;;;15.85;13.90;;;;;;;15.42;74.99;100676.58;1774729;80;21065;-87
2022/06/09 03:18:55;;;;;;;14.90;13.30;;;;;;;15.51;74.94;100676.61;1700367;82;21095;-88
2022/06/09 03:21:23;;;;;;;15.20;13.43;;;;;;;15.64;75.01;100677.55;1727042;82;21691;-88
2022/06/09 03:23:51;;;;;;;15.30;13.58;;;;;;;15.79;74.95;100674.08;1721370;82;21102;-88
2022/06/09 03:26:18;;;;;;;14.80;13.30;;;;;;;16.03;75.26;100670.59;1702681;82;21725;-87
2022/06/09 03:28:47;;;;;;;14.40;13.03;;;;;;;16.93;77.21;100667.91;1711255;82;21207;-87
2022/06/09 03:31:13;;;;;;;14.13;12.70;;;;;;;18.15;76.60;100672.22;1706401;82;21632;-89
2022/06/09 03:33:41;;;;;;;14.10;12.60;;;;;;;19.51;76.00;100663.30;1691065;83;21715;-89
2022/06/09 03:36:08;;;;;;;16.45;12.75;;;;;;;20.44;73.25;100653.91;1707477;83;21101;-87
2022/06/09 03:38:35;;;;;;;14.60;13.08;;;;;;;20.44;70.38;100657.48;1706791;82;21753;-87
2022/06/09 03:41:02;;;;;;;13.38;12.03;;;;;;;20.16;69.40;100665.95;1679119;83;21087;-87
2022/06/09 03:43:29;;;;;;;14.70;13.05;;;;;;;19.98;69.14;100667.11;1706663;82;21090;-87
2022/06/09 03:46:02;;;;;;;13.93;12.47;;;;;;;20.04;69.37;100670.60;1707265;82;21048;-88
2022/06/09 03:48:28;;;;;;;14.60;12.60;;;;;;;20.27;69.16;100668.47;1696659;82;21643;-87
2022/06/09 03:50:55;;;;;;;13.40;12.10;;;;;;;21.07;70.02;100669.72;1706323;83;21241;-89
2022/06/09 03:53:22;;;;;;;13.32;12.03;;;;;;;22.67;69.94;100670.16;1699876;82;21093;-89
2022/06/09 03:55:49;;;;;;;12.47;11.28;;;;;;;24.17;68.48;100665.33;1710870;82;21081;-87
2022/06/09 03:58:15;;;;;;;12.30;11.05;;;;;;;25.67;66.30;100666.32;1684221;85;21039;-89
2022/06/09 04:00:44;;;;;;;11.68;10.48;;;;;;;26.71;63.74;100640.95;1682292;85;21038;-90
2022/06/09 04:03:11;;;;;;;11.05;10.05;;;;;;;27.80;61.88;100661.22;1683641;85;21775;-91
2022/06/09 04:06:32;;;;;;;12.03;10.03;;;;;;;28.80;60.10;100665.76;1684483;85;21034;-89
2022/06/09 04:09:07;;;;;;;12.88;9.88;;;;;;;29.77;58.29;100656.45;1685076;83;21054;-86
2022/06/09 04:11:39;;;;;;;10.15;9.13;;;;;;;30.87;55.96;100655.01;1685962;85;21283;-89
2022/06/09 04:14:18;;;;;;;9.78;8.83;;;;;;;31.76;54.56;100654.38;1685590;85;21100;-91
2022/06/09 04:16:55;;;;;;;10.60;9.50;;;;;;;32.67;52.38;100657.00;1686171;83;21876;-91
2022/06/09 04:20:04;;;;;;;10.40;9.23;;;;;;;33.39;50.59;100653.27;1598694;87;21046;-92
2022/06/09 04:23:03;;;;;;;9.03;8.13;;;;;;;34.09;49.21;100649.95;1648762;86;21058;-90
2022/06/09 04:25:31;;;;;;;9.40;8.45;;;;;;;34.90;47.46;100661.13;1659026;86;21038;-90
2022/06/09 04:27:59;;;;;;;8.60;7.78;;;;;;;35.60;45.73;100653.72;1702128;83;21113;-90
2022/06/09 04:30:25;;;;;;;9.00;8.08;;;;;;;35.28;42.87;100654.98;1697862;83;21729;-91
2022/06/09 04:32:53;;;;;;;8.60;7.50;;;;;;;33.22;42.08;100653.13;1699640;83;21118;-91
2022/06/09 04:35:20;;;;;;;9.70;7.65;;;;;;;31.45;42.50;100660.89;1695688;83;21526;-91
2022/06/09 04:37:59;;;;;;;8.05;7.15;;;;;;;30.35;43.98;100660.37;1699154;83;21031;-91
2022/06/09 04:40:28;;;;;;;9.43;8.53;;;;;;;29.78;43.65;100656.86;1689587;84;21074;-91
2022/06/09 04:42:59;;;;;;;9.05;8.15;;;;;;;29.03;44.63;100668.11;1691970;83;22772;-91
2022/06/09 04:45:42;;;;;;;8.85;7.95;;;;;;;29.10;44.84;100657.83;1669222;85;21090;-96
2022/06/09 04:48:10;;;;;;;8.93;8.03;;;;;;;28.75;44.93;100666.47;1666108;84;21047;-88
2022/06/09 04:50:38;;;;;;;10.25;8.63;;;;;;;28.77;45.45;100667.26;1685069;83;21142;-88
2022/06/09 04:54:12;;;;;;;8.83;8.03;;;;;;;29.71;45.81;100664.42;1694428;84;21079;-95
2022/06/09 05:00:39;;;;;;;11.68;8.85;;;;;;;31.40;45.14;100671.19;1714654;83;21090;-89
2022/06/09 05:03:11;;;;;;;9.70;8.78;;;;;;;31.43;42.79;100672.36;1702139;83;21089;-96
2022/06/09 05:05:35;;;;;;;8.90;7.85;;;;;;;31.34;42.39;100669.73;1673168;85;21067;-88
2022/06/09 05:08:02;;;;;;;10.58;7.95;;;;;;;32.16;43.14;100680.35;1692111;84;21058;-90
2022/06/09 05:10:29;;;;;;;9.88;7.95;;;;;;;32.99;42.12;100682.51;1698251;83;22606;-92
2022/06/09 05:12:56;;;;;;;8.48;7.53;;;;;;;33.77;41.09;100679.67;1699696;84;21049;-90
2022/06/09 05:15:23;;;;;;;9.08;8.28;;;;;;;33.61;39.72;100674.41;1687145;84;21072;-87
2022/06/09 05:17:50;;;;;;;9.10;8.00;;;;;;;33.09;39.32;100679.50;1699019;83;21071;-92
2022/06/09 05:20:45;;;;;;;11.78;8.33;;;;;;;32.30;39.42;100674.00;1694238;84;21070;-93
2022/06/09 05:23:25;;;;;;;;;;;;;;;;;;;;;
2022/06/09 05:25:44;;;;;;;9.58;8.63;;;;;;;30.75;39.57;100671.59;1679308;85;21031;-88
2022/06/09 05:28:11;;;;;;;13.18;9.03;;;;;;;30.01;39.94;100673.17;1682692;85;21103;-89
2022/06/09 05:30:38;;;;;;;10.13;9.18;;;;;;;29.30;40.47;100677.58;1673505;85;21356;-88
2022/06/09 05:37:04;;;;;;;13.18;9.53;;;;;;;28.44;41.43;100697.33;1683524;85;21075;-87
2022/06/09 05:49:09;;;;;;;17.45;10.58;;;;;;;27.50;42.41;100703.66;1680659;85;21119;-87
2022/06/09 05:52:04;;;;;;;14.58;11.20;;;;;;;26.96;43.27;100705.56;1678850;85;21782;-94
2022/06/09 05:55:11;;;;;;;12.80;11.50;;;;;;;26.81;43.60;100706.23;1667967;85;21071;-93
2022/06/09 05:58:35;;;;;;;16.25;11.48;;;;;;;26.49;43.88;100710.28;1660161;84;21042;-93
2022/06/09 06:01:08;;;;;;;12.80;11.50;;;;;;;26.15;44.44;100710.33;1677439;85;22022;-94
2022/06/09 06:03:50;;;;;;;13.28;11.90;;;;;;;25.94;44.77;100716.08;1684046;84;21382;-90
2022/06/09 06:06:35;;;;;;;12.70;11.38;;;;;;;25.77;45.07;100720.30;1675882;84;22703;-86
2022/06/09 06:09:07;;;;;;;13.08;11.05;;;;;;;25.72;45.52;100713.34;1680076;85;21057;-95
2022/06/09 06:11:37;;;;;;;14.73;12.20;;;;;;;25.71;45.80;100712.44;1681497;85;21124;-87
2022/06/09 06:14:04;;;;;;;12.82;11.53;;;;;;;25.66;45.84;100714.89;1678994;84;21820;-86
2022/06/09 06:16:30;;;;;;;13.72;12.35;;;;;;;25.62;46.05;100718.20;1675820;84;21078;-86
2022/06/09 06:19:14;;;;;;;12.10;10.65;;;;;;;25.50;46.15;100718.66;1679967;83;21747;-94
2022/06/09 06:21:42;;;;;;;13.08;11.08;;;;;;;25.48;46.57;100715.14;1664619;84;40178;-86
2022/06/09 06:24:09;;;;;;;12.95;10.90;;;;;;;25.56;46.84;100718.41;1673806;85;21103;-95
2022/06/09 06:27:04;;;;;;;15.50;11.08;;;;;;;25.65;46.89;100715.85;1673825;84;21744;-94
2022/06/09 06:29:41;;;;;;;14.15;11.43;;;;;;;25.68;46.92;100718.44;1701834;83;21074;-94
2022/06/09 06:32:08;;;;;;;12.75;11.22;;;;;;;25.69;47.09;100715.66;1696998;83;21193;-87
2022/06/09 06:38:59;;;;;;;12.10;11.00;;;;;;;25.96;47.23;100723.67;1693233;83;21317;-94
2022/06/09 06:41:26;;;;;;;13.50;10.72;;;;;;;26.08;47.24;100715.08;1696829;82;21090;-88
2022/06/09 06:43:53;;;;;;;12.45;11.25;;;;;;;26.30;47.11;100710.17;1700673;84;21099;-87
2022/06/09 06:46:20;;;;;;;13.53;10.82;;;;;;;26.39;47.08;100721.94;1697379;83;22761;-87
2022/06/09 06:49:13;;;;;;;15.05;10.70;;;;;;;26.37;46.79;100723.79;1677770;83;21047;-96
2022/06/09 06:51:40;;;;;;;13.58;11.53;;;;;;;26.18;46.79;100704.34;1668598;84;21213;-88
2022/06/09 06:54:11;;;;;;;14.35;10.98;;;;;;;26.22;46.81;100725.77;1703423;84;21179;-94
2022/06/09 07:00:37;;;;;;;11.75;10.45;;;;;;;26.24;47.17;100727.94;1701456;83;21083;-88
2022/06/09 07:03:05;;;;;;;12.20;11.03;;;;;;;26.14;47.20;100728.30;1696559;84;21125;-88
2022/06/09 07:05:52;;;;;;;12.93;11.63;;;;;;;26.14;47.34;100720.69;1701671;83;21035;-95
2022/06/09 07:08:19;;;;;;;12.37;10.35;;;;;;;26.09;47.22;100718.20;1702315;84;21603;-89
2022/06/09 07:18:45;;;;;;;12.88;10.58;;;;;;;26.22;47.38;100726.64;1689561;84;21043;-87
2022/06/09 07:21:11;;;;;;;12.03;10.80;;;;;;;26.11;47.28;100724.85;1673319;84;21111;-86
2022/06/09 07:23:38;;;;;;;11.70;10.50;;;;;;;26.04;47.39;100729.63;1688881;84;21149;-87
2022/06/09 07:26:05;;;;;;;12.45;10.40;;;;;;;25.94;47.46;100722.38;1684637;83;21015;-87
2022/06/09 07:28:35;;;;;;;11.15;9.98;;;;;;;25.85;47.58;100710.56;1681110;83;21755;-87
2022/06/09 07:31:02;;;;;;;13.70;12.28;;;;;;;25.97;47.61;100720.89;1681206;83;21321;-87
2022/06/09 07:37:28;;;;;;;11.40;10.30;;;;;;;25.85;47.46;100724.53;1689378;84;21054;-93
2022/06/09 07:43:54;;;;;;;12.73;11.45;;;;;;;26.28;47.30;100714.75;1691084;84;21031;-95
2022/06/09 07:46:21;;;;;;;11.68;10.45;;;;;;;26.60;47.08;100729.64;1674670;85;21556;-87
2022/06/09 07:48:48;;;;;;;11.57;10.30;;;;;;;26.65;46.91;100735.70;1689127;83;21058;-87
2022/06/09 07:51:15;;;;;;;12.07;10.88;;;;;;;26.80;46.99;100739.57;1688343;84;21187;-87
2022/06/09 07:53:45;;;;;;;13.28;10.08;;;;;;;26.94;46.83;100734.95;1689001;84;21042;-87
2022/06/09 07:56:15;;;;;;;11.75;8.88;;;;;;;27.09;46.82;100737.45;1676238;84;21775;-94
2022/06/09 07:58:42;;;;;;;10.98;9.88;;;;;;;27.18;46.35;100735.70;1670810;84;21119;-87
2022/06/09 08:05:22;;;;;;;12.33;10.10;;;;;;;27.17;46.35;100732.57;1685819;84;21151;-95
2022/06/09 08:07:49;;;;;;;10.03;9.13;;;;;;;27.15;46.38;100736.69;1686914;84;21089;-88
2022/06/09 08:10:20;;;;;;;10.98;9.88;;;;;;;27.16;46.52;100741.64;1685615;83;22582;-96
2022/06/09 08:12:50;;;;;;;10.85;9.85;;;;;;;27.20;46.49;100742.36;1689212;83;21029;-93
2022/06/09 08:15:19;;;;;;;10.48;9.58;;;;;;;27.07;46.37;100748.31;1690159;83;21088;-88
2022/06/09 08:18:23;;;;;;;10.10;9.20;;;;;;;26.91;46.37;100741.34;1681290;83;21027;-96
2022/06/09 08:24:23;;;;;;;11.45;10.28;;;;;;;26.63;46.46;100748.87;1677984;84;20192;-87
2022/06/09 08:26:50;;;;;;;11.93;10.82;;;;;;;26.28;46.70;100747.14;1693286;84;21066;-93
2022/06/09 08:29:48;;;;;;;13.70;10.48;;;;;;;26.08;46.86;100751.97;1681736;83;21077;-94
2022/06/09 08:32:46;;;;;;;13.10;10.58;;;;;;;25.90;47.21;100753.08;1699314;84;21158;-93
2022/06/09 08:35:16;;;;;;;12.80;10.93;;;;;;;25.78;47.55;100754.88;1701198;83;21635;-86
2022/06/09 08:37:48;;;;;;;12.80;11.60;;;;;;;25.64;47.89;100751.81;1702910;83;21753;-87
2022/06/09 08:40:56;;;;;;;12.05;10.98;;;;;;;25.50;48.15;100759.08;1685082;84;21046;-94
2022/06/09 08:47:31;;;;;;;11.80;10.30;;;;;;;25.27;48.93;100759.45;1684807;83;21042;-96
2022/06/09 08:50:22;;;;;;;11.88;9.75;;;;;;;25.25;49.19;100759.98;1700519;83;21636;-95
2022/06/09 08:53:09;;;;;;;12.58;10.88;;;;;;;25.32;49.50;100765.56;1675524;85;21778;-87
2022/06/09 08:55:47;;;;;;;9.55;8.55;;;;;;;25.56;49.71;100765.11;1668234;85;21080;-87
2022/06/09 08:58:28;;;;;;;9.90;8.88;;;;;;;25.95;49.76;100767.27;1667012;85;21361;-95
2022/06/09 09:01:12;;;;;;;12.47;9.20;;;;;;;26.44;49.47;100774.36;1674726;85;21109;-87
2022/06/09 09:03:58;;;;;;;10.05;9.15;;;;;;;26.74;48.85;100768.19;1671880;85;21096;-87
2022/06/09 09:06:41;;;;;;;10.30;9.03;;;;;;;26.70;48.46;100761.17;1656368;85;21777;-88
2022/06/09 09:09:24;;;;;;;9.80;7.78;;;;;;;26.74;48.57;100757.39;1658442;85;21594;-88
2022/06/09 09:12:41;;;;;;;10.70;9.70;;;;;;;26.90;48.69;100746.35;1672898;85;21076;-88
2022/06/09 09:15:42;;;;;;;10.58;9.20;;;;;;;26.92;47.96;100743.59;1678984;85;21149;-88
2022/06/09 09:18:40;;;;;;;10.35;7.28;;;;;;;26.64;48.04;100747.94;1675815;85;21117;-88
2022/06/09 09:21:34;;;;;;;8.10;7.30;;;;;;;26.56;48.32;100749.58;1650917;85;21694;-88
2022/06/09 09:24:43;;;;;;;7.70;7.00;;;;;;;26.56;48.21;100746.40;1666208;85;21030;-96
2022/06/09 09:27:35;;;;;;;9.85;6.72;;;;;;;26.79;48.48;100751.81;1668555;85;21090;-88
2022/06/09 09:30:22;;;;;;;7.40;6.40;;;;;;;27.01;47.94;100743.20;1683161;85;21065;-95
2022/06/09 09:32:54;;;;;;;7.12;5.87;;;;;;;27.11;47.76;100744.53;1672901;84;21665;-94
2022/06/09 09:35:34;;;;;;;7.40;5.00;;;;;;;27.22;47.42;100744.06;1684379;84;21825;-87
2022/06/09 09:42:16;;;;;;;6.35;5.80;;;;;;;27.45;47.21;100757.05;1679818;85;21116;-95
2022/06/09 09:45:06;;;;;;;7.65;6.85;;;;;;;27.49;47.24;100754.61;1680030;85;21076;-87
2022/06/09 09:48:34;;;;;;;6.62;6.03;;;;;;;27.48;47.34;100756.89;1662948;85;21089;-95
2022/06/09 09:55:56;;;;;;;6.60;6.00;;;;;;;27.58;47.38;100751.48;1674436;83;21189;-86
2022/06/09 09:58:28;;;;;;;7.47;6.53;;;;;;;27.49;46.92;100756.83;1677948;83;21070;-95
2022/06/09 10:01:06;;;;;;;9.88;7.72;;;;;;;27.31;47.00;100749.55;1683164;83;21101;-86
2022/06/09 10:09:47;;;;;;;7.78;6.92;;;;;;;26.87;47.61;100751.00;1686074;83;21076;-94
2022/06/09 10:12:27;;;;;;;9.50;6.37;;;;;;;26.74;47.92;100752.86;1681234;85;21124;-86
2022/06/09 10:15:12;;;;;;;10.23;6.22;;;;;;;26.72;48.42;100752.53;1679237;84;21101;-86
2022/06/09 10:17:57;;;;;;;7.05;5.85;;;;;;;26.69;48.02;100749.50;1684295;85;21578;-87
2022/06/09 10:20:37;;;;;;;6.28;5.62;;;;;;;26.50;47.97;100752.52;1688135;84;21862;-86
2022/06/09 10:23:26;;;;;;;6.90;6.30;;;;;;;26.40;48.20;100752.02;1701782;83;21277;-95
2022/06/09 10:30:29;;;;;;;7.80;7.20;;;;;;;26.13;48.86;100756.23;1702566;83;21091;-95
2022/06/09 10:33:28;;;;;;;8.28;7.47;;;;;;;25.77;49.25;100756.70;1701285;84;21252;-95
2022/06/09 10:36:02;;;;;;;8.83;7.95;;;;;;;25.55;49.68;100754.41;1701487;83;21783;-88
2022/06/09 10:42:39;;;;;;;8.30;7.25;;;;;;;24.92;50.43;100751.23;1702601;84;21098;-87
2022/06/09 10:55:55;;;;;;;8.83;7.95;;;;;;;24.58;52.85;100759.11;1696655;84;21043;-95
2022/06/09 11:02:22;;;;;;;9.38;8.48;;;;;;;24.64;53.34;100754.41;1702453;83;21541;-89
2022/06/09 11:04:56;;;;;;;9.15;8.35;;;;;;;24.67;53.10;100753.89;1700796;83;21563;-95
2022/06/09 11:07:34;;;;;;;9.63;8.83;;;;;;;24.72;53.32;100756.84;1676771;84;21781;-86
2022/06/09 11:10:34;;;;;;;9.38;8.53;;;;;;;24.89;53.38;100756.27;1680418;85;21073;-94
2022/06/09 11:13:41;;;;;;;9.60;8.80;;;;;;;25.08;53.27;100763.72;1701172;83;21119;-87
2022/06/09 11:16:47;;;;;;;9.33;8.45;;;;;;;25.40;53.20;100764.80;1702436;83;21657;-87
2022/06/09 11:19:32;;;;;;;9.40;8.23;;;;;;;25.77;52.92;100766.59;1701838;83;22168;-87
2022/06/09 11:22:13;;;;;;;9.18;8.38;;;;;;;26.13;52.49;100761.64;1701219;83;22806;-87
2022/06/09 11:24:51;;;;;;;8.65;7.85;;;;;;;26.46;51.85;100766.59;1701989;83;21126;-96
2022/06/09 11:27:29;;;;;;;9.33;8.50;;;;;;;26.41;51.36;100767.28;1717689;82;21039;-96
2022/06/09 11:30:07;;;;;;;8.25;7.45;;;;;;;26.22;51.12;100761.72;1679577;84;21110;-87
2022/06/09 11:33:01;;;;;;;9.85;7.22;;;;;;;26.08;51.14;100764.98;1700864;83;21514;-87
2022/06/09 11:36:32;;;;;;;9.18;8.33;;;;;;;26.17;51.09;100764.61;1652347;85;21218;-95
2022/06/09 11:43:34;;;;;;;8.05;7.00;;;;;;;26.51;50.75;100763.73;1663809;85;21544;-96
2022/06/09 11:46:09;;;;;;;9.10;8.30;;;;;;;26.57;50.55;100762.98;1662248;86;21069;-87
2022/06/09 11:48:39;;;;;;;8.93;8.05;;;;;;;26.41;50.13;100760.98;1662178;86;21060;-96
2022/06/09 11:51:06;;;;;;;14.35;12.55;;;;;;;26.15;50.36;100762.45;1627848;87;21631;-88
2022/06/09 11:53:44;;;;;;;13.65;11.93;;;;;;;25.96;50.90;100762.30;1661626;86;21304;-88
2022/06/09 11:56:33;;;;;;;13.80;12.25;;;;;;;25.72;51.24;100769.47;1662304;86;21080;-95
2022/06/09 12:02:49;;;;;;;12.28;10.78;;;;;;;25.34;52.14;100772.22;1637626;86;21192;-87
2022/06/09 12:05:34;;;;;;;15.98;12.13;;;;;;;25.16;52.45;100784.52;1641628;86;21786;-95
2022/06/09 12:09:05;;;;;;;14.10;12.58;;;;;;;25.19;52.86;100782.59;1644962;87;21075;-94
2022/06/09 12:11:55;;;;;;;16.00;14.50;;;;;;;25.20;53.25;100781.64;1702341;83;21051;-95
2022/06/09 12:14:30;;;;;;;13.80;12.30;;;;;;;25.31;53.37;100784.00;1677249;85;21157;-87
2022/06/09 12:17:10;;;;;;;12.88;11.48;;;;;;;25.39;53.52;100777.85;1681140;85;21173;-87
2022/06/09 12:20:30;;;;;;;10.35;9.35;;;;;;;25.50;53.33;100776.13;1681618;85;21785;-93
2022/06/09 12:26:50;;;;;;;11.38;10.38;;;;;;;25.88;52.99;100772.92;1622567;88;21096;-87
2022/06/09 12:29:33;;;;;;;17.62;16.02;;;;;;;26.19;52.82;100774.88;1622638;88;21713;-87
2022/06/09 12:32:18;;;;;;;13.65;12.30;;;;;;;26.22;52.35;100776.56;1611180;88;22461;-86
2022/06/09 12:38:53;;;;;;;10.13;9.13;;;;;;;26.35;52.19;100780.55;1600618;89;21604;-86
2022/06/09 12:45:28;;;;;;;11.53;10.55;;;;;;;26.44;51.86;100769.83;1603643;88;21118;-87
2022/06/09 12:48:12;;;;;;;10.55;9.65;;;;;;;26.49;51.67;100776.41;1602040;87;21147;-88
2022/06/09 12:50:49;;;;;;;12.35;11.15;;;;;;;26.37;51.78;100775.97;1634905;86;21779;-88
2022/06/09 12:57:19;;;;;;;10.25;9.38;;;;;;;25.84;51.82;100788.34;1591144;89;21103;-86
2022/06/09 12:59:46;;;;;;;10.75;9.65;;;;;;;25.52;52.39;100789.07;1621168;87;21181;-86
2022/06/09 13:02:26;;;;;;;11.35;10.25;;;;;;;25.37;52.46;100793.67;1631135;86;21123;-86
2022/06/09 13:05:19;;;;;;;10.98;9.98;;;;;;;25.22;52.82;100788.33;1608764;87;21793;-86
2022/06/09 13:14:34;;;;;;;11.15;10.05;;;;;;;24.52;53.87;100781.72;1642932;85;21075;-95
2022/06/09 13:17:11;;;;;;;11.88;10.85;;;;;;;24.35;54.41;100791.64;1643432;86;21090;-86
2022/06/09 13:19:38;;;;;;;11.40;10.20;;;;;;;24.32;54.86;100790.85;1668465;85;21814;-87
2022/06/09 13:22:11;;;;;;;12.65;11.00;;;;;;;24.35;55.09;100798.84;1687973;83;21562;-87
2022/06/09 13:24:39;;;;;;;11.73;10.65;;;;;;;24.42;55.29;100797.72;1708450;83;21593;-87
2022/06/09 13:27:19;;;;;;;11.18;10.03;;;;;;;24.41;55.23;100798.64;1708641;83;21125;-93
2022/06/09 13:30:20;;;;;;;11.85;10.72;;;;;;;24.24;55.46;100801.38;1710591;83;21031;-87
2022/06/09 13:32:48;;;;;;;10.88;9.95;;;;;;;23.98;55.65;100805.33;1707486;83;21214;-87
2022/06/09 13:35:38;;;;;;;12.93;11.03;;;;;;;23.84;56.03;100803.06;1700420;83;21058;-87
2022/06/09 13:38:32;;;;;;;13.08;11.80;;;;;;;23.88;56.40;100803.38;1707658;83;21090;-87
2022/06/09 13:41:03;;;;;;;11.63;10.53;;;;;;;23.82;56.57;100808.48;1708845;83;21114;-87
2022/06/09 13:47:35;;;;;;;12.05;10.90;;;;;;;23.73;56.93;100808.70;1709213;83;21102;-88
2022/06/09 13:50:21;;;;;;;12.80;11.38;;;;;;;23.64;57.26;100813.00;1708598;83;21075;-87
2022/06/09 13:56:42;;;;;;;12.18;11.03;;;;;;;23.67;57.45;100815.14;1708939;83;21797;-87
2022/06/09 14:03:15;;;;;;;12.63;11.40;;;;;;;23.69;57.57;100801.66;1708740;83;21047;-95
2022/06/09 14:06:04;;;;;;;14.20;11.30;;;;;;;23.67;57.91;100809.77;1709770;83;21285;-96
2022/06/09 14:08:59;;;;;;;11.50;10.32;;;;;;;23.76;57.95;100808.62;1698240;83;21126;-87
2022/06/09 14:11:33;;;;;;;12.82;10.82;;;;;;;23.82;57.90;100804.92;1687779;83;21105;-95
2022/06/09 14:14:01;;;;;;;17.45;11.38;;;;;;;23.96;58.05;100817.47;1667906;83;21082;-87